Time;durP1;ratioP1;P1;durP2;ratioP2;P2;SDS_P1;SDS_P2;PMS_P1;PMS_P2;Temp;Humidity;BMP_temperature;BMP_pressure;BME280_temperature;BME280_humidity;BME280_pressure;Samples;Min_cycle;Max_cycle;Signal;HPM_P1;HPM_P2
2022/09/20 00:00:16;;;;;;;1.20;0.57;;;;;;;11.78;57.56;95542.41;5026743;28;20048;-78
2022/09/20 00:02:42;;;;;;;1.83;0.70;;;;;;;11.76;57.58;95547.09;5028988;28;20407;-78
2022/09/20 00:05:07;;;;;;;0.80;0.50;;;;;;;11.80;57.51;95550.28;5027960;28;20021;-78
2022/09/20 00:07:33;;;;;;;1.13;0.60;;;;;;;11.74;57.53;95549.13;5027233;28;20060;-78
2022/09/20 00:09:58;;;;;;;1.88;0.80;;;;;;;11.79;57.50;95549.44;5027481;28;20057;-78
2022/09/20 00:12:24;;;;;;;1.30;0.60;;;;;;;11.70;57.72;95556.72;5028489;28;20021;-77
2022/09/20 00:14:49;;;;;;;1.00;0.55;;;;;;;11.52;58.30;95558.88;5027647;28;20029;-78
2022/09/20 00:17:15;;;;;;;1.70;0.52;;;;;;;11.52;58.07;95559.72;5026855;28;20029;-79
2022/09/20 00:19:40;;;;;;;1.95;0.47;;;;;;;11.55;58.20;95558.53;5028220;28;20037;-79
2022/09/20 00:22:06;;;;;;;0.80;0.43;;;;;;;11.54;58.05;95552.34;5027777;28;20022;-77
2022/09/20 00:24:31;;;;;;;1.23;0.60;;;;;;;11.63;57.82;95555.78;5010694;28;20389;-77
2022/09/20 00:26:57;;;;;;;0.90;0.43;;;;;;;11.55;58.05;95553.16;5026176;28;20515;-78
2022/09/20 00:29:24;;;;;;;0.68;0.40;;;;;;;11.50;58.09;95551.84;5026701;28;20057;-77
2022/09/20 00:31:49;;;;;;;1.10;0.40;;;;;;;11.57;57.85;95560.03;5026525;28;20117;-78
2022/09/20 00:36:58;;;;;;;1.23;0.40;;;;;;;11.67;57.96;95561.63;5028149;28;20082;-78
2022/09/20 00:39:24;;;;;;;1.35;0.52;;;;;;;11.64;57.71;95564.69;5025690;28;20030;-78
2022/09/20 00:41:49;;;;;;;1.42;0.60;;;;;;;11.36;58.89;95563.38;5010196;28;20022;-78
2022/09/20 00:44:46;;;;;;;1.00;0.40;;;;;;;11.47;58.51;95552.22;5027666;28;20040;-78
2022/09/20 00:47:29;;;;;;;1.02;0.50;;;;;;;11.61;58.12;95557.81;5026957;28;20170;-78
2022/09/20 00:50:11;;;;;;;0.90;0.40;;;;;;;11.69;57.94;95564.94;5026273;28;20044;-78
2022/09/20 00:52:37;;;;;;;1.05;0.60;;;;;;;11.70;57.77;95554.03;5010366;28;20022;-78
2022/09/20 00:55:05;;;;;;;1.83;0.85;;;;;;;11.72;57.60;95565.44;5028263;28;20036;-78
2022/09/20 00:57:34;;;;;;;1.15;0.50;;;;;;;11.62;58.15;95557.63;5009548;28;20025;-78
2022/09/20 00:59:59;;;;;;;0.88;0.40;;;;;;;11.64;57.89;95554.75;4994899;28;20030;-78
2022/09/20 01:02:26;;;;;;;0.77;0.40;;;;;;;11.63;58.05;95561.16;5009308;28;20499;-78
2022/09/20 01:04:52;;;;;;;0.90;0.50;;;;;;;11.50;58.48;95553.69;5027066;28;20064;-77
2022/09/20 01:07:21;;;;;;;1.55;0.50;;;;;;;11.22;59.11;95544.31;5009783;28;20021;-77
2022/09/20 01:09:46;;;;;;;0.90;0.50;;;;;;;11.30;59.29;95542.63;5009081;28;20334;-78
2022/09/20 01:12:15;;;;;;;1.20;0.60;;;;;;;11.16;59.55;95553.09;5026427;28;20582;-77
2022/09/20 01:14:40;;;;;;;1.35;0.60;;;;;;;11.17;59.91;95556.63;5009135;28;20112;-78
2022/09/20 01:17:06;;;;;;;1.23;0.70;;;;;;;11.10;60.06;95567.22;4993715;28;20029;-78
2022/09/20 01:20:30;;;;;;;1.75;0.70;;;;;;;11.33;59.50;95558.38;4992415;28;20034;-77
2022/09/20 01:23:37;;;;;;;1.45;0.60;;;;;;;11.37;59.20;95552.44;4965086;28;20038;-78
2022/09/20 01:26:17;;;;;;;1.20;0.52;;;;;;;11.41;59.28;95552.94;5025584;28;20045;-78
2022/09/20 01:28:47;;;;;;;2.00;0.50;;;;;;;11.48;59.24;95553.03;5026164;28;20419;-77
2022/09/20 01:31:30;;;;;;;0.98;0.50;;;;;;;11.45;59.20;95554.25;4992648;28;20041;-77
2022/09/20 01:33:57;;;;;;;1.55;0.68;;;;;;;11.39;59.38;95544.22;5026168;28;20032;-78
2022/09/20 01:36:24;;;;;;;1.75;0.90;;;;;;;11.43;59.55;95552.75;5024940;28;20056;-78
2022/09/20 01:39:19;;;;;;;1.80;0.90;;;;;;;11.45;59.90;95542.66;5009516;28;20044;-78
2022/09/20 01:41:47;;;;;;;3.92;1.02;;;;;;;11.48;59.43;95547.66;5009971;28;20377;-79
2022/09/20 01:44:37;;;;;;;1.40;0.80;;;;;;;11.37;59.52;95547.09;5025146;28;20547;-78
2022/09/20 01:47:28;;;;;;;1.42;0.88;;;;;;;11.21;59.95;95558.78;5025511;28;20029;-78
2022/09/20 01:50:25;;;;;;;1.58;0.90;;;;;;;11.04;60.25;95566.09;5024347;28;20030;-78
2022/09/20 01:53:24;;;;;;;1.67;1.00;;;;;;;10.99;60.53;95569.28;5011490;28;20029;-78
2022/09/20 01:56:30;;;;;;;3.65;1.38;;;;;;;10.98;60.66;95570.31;5025413;28;20120;-78
2022/09/20 01:59:11;;;;;;;1.73;1.10;;;;;;;10.85;61.20;95564.69;5002064;28;20042;-78
2022/09/20 02:01:59;;;;;;;2.10;1.25;;;;;;;10.65;61.71;95561.59;5025993;28;20037;-77
2022/09/20 02:04:39;;;;;;;2.05;1.20;;;;;;;10.55;61.97;95556.41;5025906;28;20028;-77
2022/09/20 02:07:31;;;;;;;1.90;1.02;;;;;;;10.48;62.74;95554.44;5008086;28;20123;-78
2022/09/20 02:10:06;;;;;;;1.65;1.10;;;;;;;10.51;62.57;95545.22;5025273;28;20501;-78
2022/09/20 02:12:53;;;;;;;2.33;1.23;;;;;;;10.65;61.98;95538.28;5026366;28;20028;-79
2022/09/20 02:15:56;;;;;;;2.83;1.40;;;;;;;10.70;61.35;95535.91;5024346;28;20535;-78
2022/09/20 02:18:59;;;;;;;2.80;1.27;;;;;;;10.75;61.38;95538.91;5025086;28;20528;-78
2022/09/20 02:21:50;;;;;;;2.30;1.20;;;;;;;10.78;61.94;95552.97;5024588;28;20040;-78
2022/09/20 02:24:15;;;;;;;1.77;1.00;;;;;;;10.82;61.08;95548.91;5024081;28;20034;-78
2022/09/20 02:27:07;;;;;;;3.58;1.40;;;;;;;10.83;60.72;95547.94;5026171;28;20033;-78
2022/09/20 02:29:41;;;;;;;2.42;1.45;;;;;;;10.80;60.01;95546.41;4992051;28;20144;-79
2022/09/20 02:32:33;;;;;;;2.28;1.50;;;;;;;10.74;60.16;95542.59;5025352;28;20022;-78
2022/09/20 02:35:17;;;;;;;2.40;1.35;;;;;;;10.55;60.40;95543.00;5025079;28;20504;-78
2022/09/20 02:37:51;;;;;;;2.10;1.50;;;;;;;10.12;61.67;95549.50;5025440;28;20404;-78
2022/09/20 02:40:50;;;;;;;2.28;1.60;;;;;;;10.12;61.51;95549.50;5025704;28;20033;-78
2022/09/20 02:43:46;;;;;;;2.13;1.40;;;;;;;10.17;62.30;95554.34;5025535;28;20029;-78
2022/09/20 02:46:39;;;;;;;3.20;1.80;;;;;;;10.21;62.00;95559.19;5024669;28;20041;-77
2022/09/20 02:49:12;;;;;;;3.42;1.70;;;;;;;10.11;62.08;95559.38;5025782;28;20500;-78
2022/09/20 02:51:39;;;;;;;2.67;1.85;;;;;;;9.90;62.56;95557.22;5024130;28;20035;-78
2022/09/20 02:54:26;;;;;;;2.92;1.88;;;;;;;9.70;63.34;95557.59;5023200;28;20112;-78
2022/09/20 02:57:28;;;;;;;2.35;1.73;;;;;;;9.67;64.07;95560.63;5025465;28;20036;-78
2022/09/20 03:00:12;;;;;;;2.90;2.00;;;;;;;9.77;64.08;95555.91;5025125;28;20100;-78
2022/09/20 03:02:50;;;;;;;2.70;1.85;;;;;;;9.67;64.00;95552.59;5008115;28;20037;-78
2022/09/20 03:05:40;;;;;;;3.33;2.03;;;;;;;9.57;64.35;95563.47;5023869;28;20066;-78
2022/09/20 03:08:25;;;;;;;3.90;2.20;;;;;;;9.42;64.64;95560.59;5024475;28;20068;-78
2022/09/20 03:10:53;;;;;;;3.95;2.00;;;;;;;9.59;63.72;95560.63;5008331;28;20327;-78
2022/09/20 03:13:36;;;;;;;3.17;2.03;;;;;;;9.44;64.09;95563.97;5023515;28;20033;-78
2022/09/20 03:16:28;;;;;;;3.20;2.10;;;;;;;9.58;64.06;95564.28;5024612;28;20108;-78
2022/09/20 03:19:32;;;;;;;2.80;1.88;;;;;;;9.50;64.12;95567.81;5025280;28;20045;-78
2022/09/20 03:22:29;;;;;;;3.15;2.10;;;;;;;9.40;63.88;95576.00;5017899;28;20040;-78
2022/09/20 03:25:06;;;;;;;2.40;1.67;;;;;;;9.40;64.12;95573.31;5023080;28;20045;-78
2022/09/20 03:27:35;;;;;;;2.90;1.90;;;;;;;9.42;64.06;95581.19;5024623;28;20104;-77
2022/09/20 03:30:05;;;;;;;2.65;1.83;;;;;;;9.30;64.28;95567.28;5024024;28;20555;-78
2022/09/20 03:32:55;;;;;;;3.03;2.08;;;;;;;9.31;64.34;95577.84;5023666;28;20063;-77
2022/09/20 03:35:39;;;;;;;3.13;1.83;;;;;;;9.30;64.08;95565.47;5025416;28;20045;-79
2022/09/20 03:38:36;;;;;;;3.50;1.67;;;;;;;9.21;64.23;95571.78;5023932;28;20026;-77
2022/09/20 03:41:22;;;;;;;3.10;1.73;;;;;;;9.15;63.50;95568.78;5025371;28;20368;-79
2022/09/20 03:43:56;;;;;;;4.32;2.85;;;;;;;9.23;63.35;95570.63;5025059;28;20064;-78
2022/09/20 03:46:29;;;;;;;3.00;1.80;;;;;;;9.26;63.48;95561.44;5024098;28;20025;-77
2022/09/20 03:49:13;;;;;;;2.75;1.65;;;;;;;9.31;63.13;95577.00;5024934;28;20084;-77
2022/09/20 03:51:38;;;;;;;2.90;1.95;;;;;;;9.32;62.55;95576.00;5024182;28;20029;-78
2022/09/20 03:54:28;;;;;;;3.08;1.92;;;;;;;9.36;63.13;95582.69;5025089;28;20037;-77
2022/09/20 03:57:33;;;;;;;2.92;2.03;;;;;;;9.40;63.04;95589.38;5025012;28;20029;-79
2022/09/20 04:00:21;;;;;;;2.28;1.70;;;;;;;9.49;62.59;95585.72;5022905;28;20040;-79
2022/09/20 04:03:02;;;;;;;2.15;1.63;;;;;;;9.55;61.85;95586.03;5024589;28;20071;-78
2022/09/20 04:05:49;;;;;;;3.28;1.85;;;;;;;9.49;62.04;95591.09;5024237;28;20111;-79
2022/09/20 04:08:35;;;;;;;3.22;2.00;;;;;;;9.54;62.26;95590.59;5009432;28;20108;-79
2022/09/20 04:11:31;;;;;;;2.85;1.80;;;;;;;9.57;61.96;95590.25;5013251;28;20075;-78
2022/09/20 04:14:02;;;;;;;3.20;2.00;;;;;;;9.54;62.18;95595.09;5024649;28;20047;-79
2022/09/20 04:16:44;;;;;;;3.70;2.17;;;;;;;9.60;62.18;95597.09;5026439;28;20104;-79
2022/09/20 04:19:28;;;;;;;2.63;1.88;;;;;;;9.67;61.70;95606.16;5026602;28;20336;-78
2022/09/20 04:21:55;;;;;;;2.78;1.80;;;;;;;9.67;61.81;95599.94;5026079;28;20033;-77
2022/09/20 04:24:27;;;;;;;2.92;2.00;;;;;;;9.74;61.39;95604.47;5027089;28;20025;-78
2022/09/20 04:27:00;;;;;;;4.70;1.92;;;;;;;9.70;61.72;95608.50;5027524;28;20036;-78
2022/09/20 04:29:34;;;;;;;;;;;;;;;9.71;61.82;95612.00;5011030;28;20940;-78
2022/09/20 04:32:11;;;;;;;2.88;1.65;;;;;;;9.67;61.60;95611.50;5026373;28;20281;-78
2022/09/20 04:37:33;;;;;;;4.03;2.10;;;;;;;9.70;61.61;95608.50;5012923;28;20471;-78
2022/09/20 04:40:06;;;;;;;5.82;1.98;;;;;;;9.75;61.20;95603.44;5025626;28;20025;-79
2022/09/20 04:43:03;;;;;;;3.30;2.15;;;;;;;9.64;61.58;95611.84;5026066;28;20137;-78
2022/09/20 04:46:15;;;;;;;3.92;1.90;;;;;;;9.87;61.17;95614.69;5026074;28;20048;-79
2022/09/20 04:48:59;;;;;;;4.25;2.20;;;;;;;9.96;60.74;95612.81;5024204;28;20496;-78
2022/09/20 04:51:50;;;;;;;3.72;2.33;;;;;;;10.00;60.93;95616.84;5024400;28;20083;-79
2022/09/20 04:54:47;;;;;;;8.77;2.65;;;;;;;9.93;61.19;95621.19;5026969;28;20420;-78
2022/09/20 04:57:47;;;;;;;5.13;2.17;;;;;;;9.82;61.43;95626.91;5025409;28;20041;-78
2022/09/20 05:00:20;;;;;;;3.30;2.42;;;;;;;10.02;61.52;95625.56;5025623;28;20484;-78
2022/09/20 05:03:19;;;;;;;4.85;2.50;;;;;;;10.09;60.98;95623.03;5009853;28;20103;-77
2022/09/20 05:06:18;;;;;;;5.65;2.65;;;;;;;10.27;60.68;95619.31;5010642;28;20038;-78
2022/09/20 05:09:07;;;;;;;5.88;2.13;;;;;;;10.45;59.85;95627.16;5026285;28;20488;-77
2022/09/20 05:11:46;;;;;;;5.93;2.13;;;;;;;10.48;59.83;95615.25;5025566;28;20030;-79
2022/09/20 05:14:36;;;;;;;5.70;2.42;;;;;;;10.71;59.19;95625.25;5025040;28;20026;-77
2022/09/20 05:17:16;;;;;;;2.90;1.90;;;;;;;10.63;59.56;95629.66;5026516;28;20032;-78
2022/09/20 05:20:06;;;;;;;6.63;2.30;;;;;;;10.81;59.47;95631.28;5026560;28;20038;-79
2022/09/20 05:22:59;;;;;;;3.58;2.00;;;;;;;10.86;59.06;95636.13;5025119;28;20577;-78
2022/09/20 05:25:28;;;;;;;;;;;;;;;11.02;58.97;95629.00;5025881;28;20488;-79
2022/09/20 05:28:10;;;;;;;2.50;1.65;;;;;;;11.13;58.91;95633.97;5026611;28;20399;-79
2022/09/20 05:30:42;;;;;;;2.70;1.85;;;;;;;11.24;58.62;95633.59;5009066;28;20026;-79
2022/09/20 05:33:29;;;;;;;3.60;1.85;;;;;;;11.21;58.82;95631.25;5009572;28;20142;-77
2022/09/20 05:36:09;;;;;;;2.60;1.63;;;;;;;11.16;58.92;95630.09;5026569;28;20488;-78
2022/09/20 05:38:58;;;;;;;3.22;1.63;;;;;;;11.48;57.97;95633.59;5025669;28;20021;-77
2022/09/20 05:41:46;;;;;;;2.92;1.90;;;;;;;11.79;57.00;95630.03;5011678;28;20021;-79
2022/09/20 05:44:40;;;;;;;3.25;1.95;;;;;;;12.09;56.68;95630.16;5008454;28;20030;-79
2022/09/20 05:47:05;;;;;;;;;;;;;;;12.29;56.01;95628.81;5025773;28;20022;-78
2022/09/20 05:49:55;;;;;;;2.63;1.52;;;;;;;12.46;55.24;95624.94;5024859;28;19974;-78
2022/09/20 05:52:30;;;;;;;2.65;1.80;;;;;;;12.42;55.58;95612.88;5014313;28;20041;-78
2022/09/20 05:55:12;;;;;;;2.67;1.83;;;;;;;12.34;56.13;95631.78;5026248;28;20033;-78
2022/09/20 05:57:47;;;;;;;3.10;1.40;;;;;;;12.15;55.69;95622.38;5024743;28;20026;-78
2022/09/20 06:00:19;;;;;;;3.60;1.83;;;;;;;12.32;55.20;95620.38;5025742;28;20121;-78
2022/09/20 06:03:21;;;;;;;3.33;1.80;;;;;;;12.19;55.92;95623.69;5008495;28;20036;-78
2022/09/20 06:06:06;;;;;;;4.85;1.35;;;;;;;12.38;55.34;95627.69;5024551;28;20093;-78
2022/09/20 06:08:59;;;;;;;4.65;1.40;;;;;;;12.37;55.21;95626.03;5024665;28;20045;-77
2022/09/20 06:11:57;;;;;;;2.50;1.60;;;;;;;12.07;55.87;95628.66;5025852;28;20067;-79
2022/09/20 06:14:31;;;;;;;5.63;1.58;;;;;;;12.15;55.89;95628.63;5024761;28;20052;-78
2022/09/20 06:17:15;;;;;;;1.98;1.25;;;;;;;12.13;55.76;95629.78;5024611;28;20040;-78
2022/09/20 06:19:46;;;;;;;2.78;1.25;;;;;;;12.31;55.35;95630.31;5025417;28;20041;-79
2022/09/20 06:22:20;;;;;;;2.45;1.48;;;;;;;11.95;56.17;95626.38;5024961;28;20040;-78
2022/09/20 06:25:06;;;;;;;5.10;1.40;;;;;;;12.27;55.58;95631.69;5008758;28;20522;-79
2022/09/20 06:27:41;;;;;;;2.90;1.50;;;;;;;12.57;54.77;95622.81;5024408;28;20052;-77
2022/09/20 06:30:15;;;;;;;3.20;1.42;;;;;;;12.78;53.85;95626.63;5007205;28;20223;-79
2022/09/20 06:33:09;;;;;;;2.80;1.52;;;;;;;12.54;54.47;95626.69;5008508;28;20108;-80
2022/09/20 06:35:38;;;;;;;;;;;;;;;12.80;53.76;95625.41;5009411;28;20025;-78
2022/09/20 06:41:29;;;;;;;3.30;1.80;;;;;;;13.02;53.60;95616.56;5012756;28;20040;-79
2022/09/20 06:43:58;;;;;;;2.55;1.52;;;;;;;12.98;53.99;95621.50;5009979;28;20029;-78
2022/09/20 06:46:27;;;;;;;2.40;1.23;;;;;;;12.47;54.22;95623.94;5007283;28;20025;-78
2022/09/20 06:48:54;;;;;;;3.90;1.60;;;;;;;12.76;53.16;95624.13;5023534;28;20034;-78
2022/09/20 06:51:20;;;;;;;3.28;1.40;;;;;;;12.75;53.13;95619.75;5024715;28;20405;-79
2022/09/20 06:53:45;;;;;;;2.72;1.40;;;;;;;12.90;52.64;95629.66;5023426;28;20027;-79
2022/09/20 06:56:15;;;;;;;2.95;1.83;;;;;;;12.85;52.61;95625.69;5007725;28;20025;-78
2022/09/20 06:58:40;;;;;;;6.13;1.33;;;;;;;12.86;52.52;95630.03;5023566;28;20079;-78
2022/09/20 07:01:06;;;;;;;2.80;1.55;;;;;;;12.94;52.36;95630.97;5025055;28;20443;-78
2022/09/20 07:03:32;;;;;;;4.32;1.45;;;;;;;13.05;52.49;95638.59;5023583;28;20337;-78
2022/09/20 07:05:59;;;;;;;3.17;1.40;;;;;;;13.21;51.94;95636.69;5023164;28;20554;-79
2022/09/20 07:08:25;;;;;;;3.10;1.42;;;;;;;12.84;53.38;95636.63;5023487;28;20026;-78
2022/09/20 07:10:51;;;;;;;4.47;1.55;;;;;;;13.11;52.85;95634.28;5024557;28;20025;-78
2022/09/20 07:13:19;;;;;;;2.00;1.50;;;;;;;13.19;51.82;95639.56;5023705;28;20466;-78
2022/09/20 07:15:44;;;;;;;2.25;1.30;;;;;;;13.55;50.88;95637.09;5007096;28;20112;-78
2022/09/20 07:18:09;;;;;;;3.72;1.25;;;;;;;13.39;50.83;95646.22;5007133;28;20346;-78
2022/09/20 07:20:35;;;;;;;4.28;1.25;;;;;;;13.62;50.54;95645.25;5006763;28;20017;-78
2022/09/20 07:23:01;;;;;;;1.95;1.23;;;;;;;13.64;50.94;95646.72;5024741;28;20381;-78
2022/09/20 07:25:26;;;;;;;2.35;1.23;;;;;;;13.36;51.47;95639.38;5006977;28;20412;-80
2022/09/20 07:27:52;;;;;;;2.10;1.10;;;;;;;13.37;51.78;95646.41;5023268;28;20522;-78
2022/09/20 07:30:18;;;;;;;3.08;1.13;;;;;;;13.59;51.00;95643.75;5023485;28;20026;-78
2022/09/20 07:32:43;;;;;;;2.05;1.38;;;;;;;13.13;52.22;95639.47;5023055;28;20104;-79
2022/09/20 07:35:09;;;;;;;2.08;1.02;;;;;;;13.17;51.06;95641.59;5023702;28;20033;-79
2022/09/20 07:37:35;;;;;;;2.42;1.27;;;;;;;13.45;50.34;95642.75;5022804;28;20040;-79
2022/09/20 07:40:01;;;;;;;3.05;1.20;;;;;;;13.55;49.70;95640.63;5023731;28;20145;-78
2022/09/20 07:42:28;;;;;;;2.70;1.17;;;;;;;13.79;49.11;95627.81;5026594;28;20036;-78
2022/09/20 07:44:54;;;;;;;3.53;1.30;;;;;;;13.81;49.64;95628.47;5027270;28;20035;-79
2022/09/20 07:47:20;;;;;;;1.40;0.80;;;;;;;13.64;49.81;95635.94;5027291;28;20021;-79
2022/09/20 07:49:45;;;;;;;2.30;1.20;;;;;;;13.70;49.53;95631.66;5010226;28;20105;-79
2022/09/20 07:52:11;;;;;;;2.83;1.15;;;;;;;14.06;49.05;95627.22;5028457;28;20052;-79
2022/09/20 07:54:36;;;;;;;5.45;1.20;;;;;;;14.10;48.35;95625.81;5027808;28;20036;-79
2022/09/20 07:57:04;;;;;;;2.20;1.20;;;;;;;14.34;48.29;95626.41;5027241;28;20034;-78
2022/09/20 07:59:30;;;;;;;2.75;1.00;;;;;;;14.26;47.38;95629.25;5010698;28;20029;-79
2022/09/20 08:01:57;;;;;;;2.55;0.88;;;;;;;14.11;46.54;95626.63;5028169;28;20786;-79
2022/09/20 08:04:23;;;;;;;1.50;0.80;;;;;;;14.26;46.14;95627.41;5028852;28;20024;-79
2022/09/20 08:06:48;;;;;;;1.30;0.60;;;;;;;14.55;45.59;95613.88;5027750;28;20041;-79
2022/09/20 08:09:14;;;;;;;1.52;0.80;;;;;;;14.56;44.99;95612.84;5028410;28;20490;-79
2022/09/20 08:11:39;;;;;;;1.60;0.73;;;;;;;14.45;44.14;95615.09;5026285;28;20432;-78
2022/09/20 08:14:05;;;;;;;1.95;0.90;;;;;;;14.58;43.88;95613.50;5010803;28;20021;-79
2022/09/20 08:16:30;;;;;;;3.38;0.80;;;;;;;14.51;43.89;95624.25;5010372;28;20095;-79
2022/09/20 08:18:57;;;;;;;0.90;0.47;;;;;;;14.68;42.52;95619.38;5010169;28;20038;-79
2022/09/20 08:21:24;;;;;;;2.28;0.70;;;;;;;14.74;42.30;95616.91;5010360;28;20026;-79
2022/09/20 08:23:49;;;;;;;1.08;0.68;;;;;;;14.75;42.62;95624.00;5026106;28;20033;-79
2022/09/20 08:26:17;;;;;;;1.55;0.63;;;;;;;14.41;43.08;95629.97;5010250;28;20025;-79
2022/09/20 08:28:44;;;;;;;1.27;0.70;;;;;;;14.57;44.06;95630.72;5009654;28;20053;-79
2022/09/20 08:31:14;;;;;;;2.15;0.70;;;;;;;14.32;43.80;95631.16;5010181;28;20044;-79
2022/09/20 08:33:40;;;;;;;1.70;0.80;;;;;;;14.36;43.62;95621.66;5009978;28;20041;-79
2022/09/20 08:36:06;;;;;;;1.63;0.85;;;;;;;14.36;43.76;95621.66;5026244;28;20025;-79
2022/09/20 08:38:32;;;;;;;1.20;0.70;;;;;;;14.70;42.81;95608.38;5027498;28;20017;-79
2022/09/20 08:41:00;;;;;;;1.35;0.70;;;;;;;15.18;42.70;95598.66;5025774;28;20412;-79
2022/09/20 08:43:28;;;;;;;1.85;1.23;;;;;;;14.77;42.06;95605.69;5027759;28;20026;-79
2022/09/20 08:45:57;;;;;;;1.33;0.60;;;;;;;14.88;41.08;95594.38;5025958;28;20045;-79
2022/09/20 08:48:22;;;;;;;1.30;0.60;;;;;;;14.82;40.74;95593.31;5027465;28;20026;-79
2022/09/20 08:50:48;;;;;;;3.00;0.77;;;;;;;15.13;40.58;95593.03;5008770;28;20048;-80
2022/09/20 08:53:14;;;;;;;2.95;0.60;;;;;;;15.16;39.88;95588.06;5009374;28;20499;-79
2022/09/20 08:55:42;;;;;;;1.17;0.63;;;;;;;14.85;41.45;95592.06;5026133;28;20476;-79
2022/09/20 08:58:09;;;;;;;0.80;0.50;;;;;;;14.90;40.01;95589.63;5010152;28;20411;-79
2022/09/20 09:00:35;;;;;;;2.10;0.45;;;;;;;15.02;39.35;95586.34;5010025;28;20021;-79
2022/09/20 09:03:06;;;;;;;1.88;0.60;;;;;;;15.08;40.91;95585.53;5025569;28;20029;-78
2022/09/20 09:05:33;;;;;;;2.17;0.82;;;;;;;14.98;41.93;95587.78;5009259;28;20496;-78
2022/09/20 09:08:01;;;;;;;1.63;0.93;;;;;;;14.79;42.04;95582.03;5025284;28;20049;-79
2022/09/20 09:10:35;;;;;;;2.35;1.00;;;;;;;14.77;41.86;95589.50;5009486;28;20540;-78
2022/09/20 09:13:00;;;;;;;2.55;0.82;;;;;;;14.74;42.26;95585.34;5025920;28;20038;-78
2022/09/20 09:15:31;;;;;;;1.60;0.65;;;;;;;14.87;41.15;95573.81;5009714;28;20040;-78
2022/09/20 09:17:57;;;;;;;2.92;0.52;;;;;;;14.94;40.60;95577.38;5008904;28;20029;-78
2022/09/20 09:20:22;;;;;;;2.13;0.60;;;;;;;15.05;41.11;95572.44;5009019;28;20527;-79
2022/09/20 09:23:10;;;;;;;0.85;0.70;;;;;;;15.25;39.76;95571.69;5025554;28;20083;-79
2022/09/20 09:25:38;;;;;;;1.25;0.57;;;;;;;15.28;38.65;95566.69;5025212;28;20115;-80
2022/09/20 09:28:07;;;;;;;0.82;0.40;;;;;;;15.17;39.40;95562.72;5025448;28;20570;-79
2022/09/20 09:30:34;;;;;;;1.60;0.60;;;;;;;14.98;38.99;95555.38;5026829;28;20029;-79
2022/09/20 09:33:18;;;;;;;2.88;0.60;;;;;;;15.42;37.80;95551.34;4992771;28;20041;-79
2022/09/20 09:35:51;;;;;;;1.05;0.60;;;;;;;15.41;39.43;95549.66;5026863;28;20100;-79
2022/09/20 09:38:20;;;;;;;1.20;0.60;;;;;;;15.32;40.36;95549.03;5025475;28;20017;-79
2022/09/20 09:40:51;;;;;;;1.02;0.55;;;;;;;15.13;41.10;95544.41;5009199;28;20069;-78
2022/09/20 09:43:27;;;;;;;0.90;0.50;;;;;;;15.42;42.17;95542.41;5024903;28;20511;-79
2022/09/20 09:45:53;;;;;;;1.13;0.50;;;;;;;15.14;41.22;95536.09;5025173;28;20032;-79
2022/09/20 09:48:30;;;;;;;1.40;0.60;;;;;;;14.81;41.68;95542.22;5024928;28;20385;-79
2022/09/20 09:51:14;;;;;;;1.58;0.50;;;;;;;14.85;41.92;95531.84;5026158;28;20033;-79
2022/09/20 09:53:39;;;;;;;1.65;0.80;;;;;;;14.72;42.28;95541.50;5025008;28;20029;-80
2022/09/20 09:56:35;;;;;;;1.98;0.70;;;;;;;14.59;42.10;95543.13;5008101;28;20040;-78
2022/09/20 09:59:14;;;;;;;2.88;0.80;;;;;;;14.57;42.96;95547.88;5026706;28;20037;-79
2022/09/20 10:02:17;;;;;;;1.15;0.68;;;;;;;14.37;42.25;95542.38;5026240;28;20097;-79
2022/09/20 10:05:01;;;;;;;2.97;0.80;;;;;;;14.64;42.18;95544.41;5024891;28;20042;-78
2022/09/20 10:07:58;;;;;;;1.33;0.80;;;;;;;14.54;42.04;95547.47;5024941;28;20030;-79
2022/09/20 10:10:40;;;;;;;2.65;0.90;;;;;;;14.45;41.98;95544.06;5024809;28;20327;-80
2022/09/20 10:13:34;;;;;;;1.67;0.80;;;;;;;14.59;41.95;95540.41;5009218;28;20049;-80
2022/09/20 10:16:32;;;;;;;4.32;0.75;;;;;;;14.36;43.23;95538.03;5026043;28;20135;-79
2022/09/20 10:19:02;;;;;;;3.90;0.93;;;;;;;14.30;43.60;95536.13;5025743;28;20036;-78
2022/09/20 10:22:32;;;;;;;2.00;0.90;;;;;;;14.53;42.07;95535.81;5025238;28;20025;-79
2022/09/20 10:25:17;;;;;;;1.05;0.60;;;;;;;14.70;41.84;95533.63;5005621;28;20433;-79
2022/09/20 10:28:06;;;;;;;2.13;0.80;;;;;;;14.71;42.04;95527.19;5025307;28;20033;-79
2022/09/20 10:31:09;;;;;;;1.75;0.70;;;;;;;14.60;42.06;95530.47;5008183;28;20029;-79
2022/09/20 10:33:51;;;;;;;1.10;0.60;;;;;;;14.70;42.00;95524.72;5025398;28;20057;-79
2022/09/20 10:36:48;;;;;;;2.87;0.60;;;;;;;14.62;41.30;95522.97;5024220;28;20029;-79
2022/09/20 10:39:33;;;;;;;3.28;0.80;;;;;;;14.56;41.27;95530.03;5009592;28;20311;-79
2022/09/20 10:45:10;;;;;;;1.63;0.88;;;;;;;14.49;41.60;95534.56;5024346;28;20087;-79
2022/09/20 10:48:13;;;;;;;1.67;0.98;;;;;;;14.61;41.74;95515.09;5007937;28;20032;-78
2022/09/20 10:50:51;;;;;;;3.85;1.10;;;;;;;14.64;41.77;95534.41;5024468;28;20674;-79
2022/09/20 10:53:38;;;;;;;2.03;1.00;;;;;;;14.80;40.10;95527.88;5024859;28;20034;-79
2022/09/20 10:56:15;;;;;;;1.60;0.90;;;;;;;14.93;40.02;95527.09;5025057;28;20040;-79
2022/09/20 10:59:09;;;;;;;3.92;1.08;;;;;;;14.77;40.02;95530.94;5024732;28;20115;-79
2022/09/20 11:01:46;;;;;;;;;;;;;;;15.17;39.37;95524.88;5025169;28;20033;-79
2022/09/20 11:04:22;;;;;;;1.48;0.90;;;;;;;15.10;39.13;95515.09;5025174;28;19963;-79
2022/09/20 11:07:04;;;;;;;2.05;1.10;;;;;;;15.19;39.23;95506.63;5023129;28;20021;-79
2022/09/20 11:09:33;;;;;;;3.50;1.00;;;;;;;15.41;38.21;95508.31;5007975;28;20143;-79
2022/09/20 11:12:15;;;;;;;1.50;1.00;;;;;;;15.47;37.39;95517.47;5007002;28;20384;-79
2022/09/20 11:15:01;;;;;;;1.77;0.80;;;;;;;15.49;37.16;95520.81;5024430;28;20021;-78
2022/09/20 11:17:34;;;;;;;1.63;1.00;;;;;;;15.37;36.67;95513.28;5009155;28;20040;-79
2022/09/20 11:20:43;;;;;;;3.70;1.00;;;;;;;15.53;37.22;95516.63;5023178;28;20065;-79
2022/09/20 11:23:15;;;;;;;2.25;0.70;;;;;;;15.33;37.08;95512.88;5005467;28;20121;-79
2022/09/20 11:25:47;;;;;;;2.20;1.00;;;;;;;15.64;38.22;95507.91;5024561;28;20045;-80
2022/09/20 11:28:19;;;;;;;4.75;0.93;;;;;;;15.87;36.48;95509.38;5024342;28;20598;-79
2022/09/20 11:31:11;;;;;;;1.20;0.70;;;;;;;16.00;36.22;95502.31;5022829;28;20068;-79
2022/09/20 11:33:51;;;;;;;1.50;0.85;;;;;;;15.82;36.32;95504.59;4991844;28;20389;-78
2022/09/20 11:36:38;;;;;;;1.20;0.80;;;;;;;15.99;36.68;95504.19;5007203;28;20021;-79
2022/09/20 11:39:14;;;;;;;1.30;0.90;;;;;;;16.10;37.07;95494.63;5024634;28;20461;-80
2022/09/20 11:41:39;;;;;;;1.40;0.85;;;;;;;16.26;36.25;95492.50;4990233;28;20032;-79
2022/09/20 11:44:06;;;;;;;1.88;1.17;;;;;;;16.55;36.20;95488.47;5023119;28;20030;-79
2022/09/20 11:46:53;;;;;;;3.33;0.70;;;;;;;16.51;36.22;95480.97;5006920;28;20084;-81
2022/09/20 11:49:31;;;;;;;1.63;1.08;;;;;;;16.78;36.88;95489.00;5022804;28;20053;-80
2022/09/20 11:52:33;;;;;;;2.10;0.80;;;;;;;16.56;35.89;95486.56;5007881;28;20027;-79
2022/09/20 11:55:01;;;;;;;2.03;0.70;;;;;;;16.57;36.61;95482.84;5024173;28;20508;-79
2022/09/20 11:57:27;;;;;;;1.25;0.80;;;;;;;16.97;36.18;95481.00;5024184;28;20025;-80
2022/09/20 11:59:57;;;;;;;3.45;0.90;;;;;;;17.00;35.47;95475.13;5006691;28;20404;-80
2022/09/20 12:02:23;;;;;;;2.65;0.90;;;;;;;17.08;35.31;95474.94;5007053;28;20095;-79
2022/09/20 12:04:52;;;;;;;1.38;0.88;;;;;;;16.54;36.34;95467.03;5024442;28;20479;-79
2022/09/20 12:07:42;;;;;;;1.63;0.90;;;;;;;16.11;37.26;95477.34;5007121;28;20025;-79
2022/09/20 12:10:21;;;;;;;1.80;0.75;;;;;;;15.78;37.50;95479.00;5022855;28;20057;-78
2022/09/20 12:12:50;;;;;;;3.90;0.90;;;;;;;15.61;37.96;95481.28;5023081;28;20029;-79
2022/09/20 12:15:35;;;;;;;1.85;0.77;;;;;;;15.96;37.47;95476.72;5006748;28;20091;-82
2022/09/20 12:18:07;;;;;;;1.92;0.75;;;;;;;16.14;36.91;95478.78;5006508;28;20040;-79
2022/09/20 12:20:37;;;;;;;5.45;1.13;;;;;;;16.25;37.59;95472.72;5006824;28;20508;-80
2022/09/20 12:23:40;;;;;;;7.95;2.65;;;;;;;16.18;37.04;95475.47;5023612;28;20022;-79
2022/09/20 12:26:21;;;;;;;1.93;1.10;;;;;;;16.05;37.75;95465.50;5024492;28;20095;-79
2022/09/20 12:28:54;;;;;;;3.13;1.15;;;;;;;16.01;37.64;95464.22;5009044;28;20289;-79
2022/09/20 12:31:33;;;;;;;6.38;3.63;;;;;;;15.99;37.71;95460.91;5009803;28;20021;-81
2022/09/20 12:34:14;;;;;;;1.60;0.90;;;;;;;16.40;36.78;95467.06;5027313;28;20064;-79
2022/09/20 12:36:54;;;;;;;2.38;0.75;;;;;;;16.72;35.21;95474.44;5027377;28;20099;-79